sensor_id;sensor_type;location;lat;lon;timestamp;temperature;humidity
15983;DHT22;14442;50.196;8.096;2023-03-31T00:00:33;21.30;46.30
15983;DHT22;14442;50.196;8.096;2023-03-31T00:03:00;21.30;46.20
15983;DHT22;14442;50.196;8.096;2023-03-31T00:05:27;21.30;46.30
15983;DHT22;14442;50.196;8.096;2023-03-31T00:07:56;21.20;46.20
15983;DHT22;14442;50.196;8.096;2023-03-31T00:10:25;21.30;46.20
15983;DHT22;14442;50.196;8.096;2023-03-31T00:12:52;21.30;46.30
15983;DHT22;14442;50.196;8.096;2023-03-31T00:15:19;21.30;46.20
15983;DHT22;14442;50.196;8.096;2023-03-31T00:17:45;21.30;46.30
15983;DHT22;14442;50.196;8.096;2023-03-31T00:20:12;21.20;46.20
15983;DHT22;14442;50.196;8.096;2023-03-31T00:22:39;21.20;46.20
15983;DHT22;14442;50.196;8.096;2023-03-31T00:25:12;21.20;46.10
15983;DHT22;14442;50.196;8.096;2023-03-31T00:27:40;21.20;46.20
15983;DHT22;14442;50.196;8.096;2023-03-31T00:30:11;21.30;46.30
15983;DHT22;14442;50.196;8.096;2023-03-31T00:32:38;21.20;46.90
15983;DHT22;14442;50.196;8.096;2023-03-31T00:35:05;21.20;46.20
15983;DHT22;14442;50.196;8.096;2023-03-31T00:37:33;21.20;46.20
15983;DHT22;14442;50.196;8.096;2023-03-31T00:40:00;21.20;46.20
15983;DHT22;14442;50.196;8.096;2023-03-31T00:42:28;21.20;46.30
15983;DHT22;14442;50.196;8.096;2023-03-31T00:45:26;21.20;46.20
15983;DHT22;14442;50.196;8.096;2023-03-31T00:47:56;21.20;46.20
15983;DHT22;14442;50.196;8.096;2023-03-31T00:50:26;21.20;46.30
15983;DHT22;14442;50.196;8.096;2023-03-31T00:52:55;21.20;46.20
15983;DHT22;14442;50.196;8.096;2023-03-31T00:55:29;21.10;46.10
15983;DHT22;14442;50.196;8.096;2023-03-31T00:57:58;21.10;46.10
15983;DHT22;14442;50.196;8.096;2023-03-31T01:00:29;21.10;46.20
15983;DHT22;14442;50.196;8.096;2023-03-31T01:02:58;21.20;46.30
15983;DHT22;14442;50.196;8.096;2023-03-31T01:05:31;21.20;46.30
15983;DHT22;14442;50.196;8.096;2023-03-31T01:07:58;21.10;46.20
15983;DHT22;14442;50.196;8.096;2023-03-31T01:10:27;21.10;46.20
15983;DHT22;14442;50.196;8.096;2023-03-31T01:12:54;21.10;46.20
15983;DHT22;14442;50.196;8.096;2023-03-31T01:15:24;21.00;46.10
15983;DHT22;14442;50.196;8.096;2023-03-31T01:17:51;21.10;46.20
15983;DHT22;14442;50.196;8.096;2023-03-31T01:20:24;21.10;46.80
15983;DHT22;14442;50.196;8.096;2023-03-31T01:23:14;21.10;46.20
15983;DHT22;14442;50.196;8.096;2023-03-31T01:29:09;21.10;46.20
15983;DHT22;14442;50.196;8.096;2023-03-31T01:32:01;21.10;46.30
15983;DHT22;14442;50.196;8.096;2023-03-31T01:35:08;21.10;46.30
15983;DHT22;14442;50.196;8.096;2023-03-31T01:41:00;21.10;46.30
15983;DHT22;14442;50.196;8.096;2023-03-31T01:43:33;21.10;46.30
15983;DHT22;14442;50.196;8.096;2023-03-31T01:46:08;21.00;46.30
15983;DHT22;14442;50.196;8.096;2023-03-31T01:48:43;21.10;46.30
15983;DHT22;14442;50.196;8.096;2023-03-31T01:51:16;21.00;46.20
15983;DHT22;14442;50.196;8.096;2023-03-31T01:53:48;21.00;46.20
15983;DHT22;14442;50.196;8.096;2023-03-31T01:56:21;21.00;46.20
15983;DHT22;14442;50.196;8.096;2023-03-31T01:58:53;21.00;46.20
15983;DHT22;14442;50.196;8.096;2023-03-31T02:01:28;21.00;46.30
15983;DHT22;14442;50.196;8.096;2023-03-31T02:03:58;21.00;46.20
15983;DHT22;14442;50.196;8.096;2023-03-31T02:06:32;21.00;46.20
15983;DHT22;14442;50.196;8.096;2023-03-31T02:09:01;21.00;46.20
15983;DHT22;14442;50.196;8.096;2023-03-31T02:11:31;21.00;46.30
15983;DHT22;14442;50.196;8.096;2023-03-31T02:14:00;21.00;46.40
15983;DHT22;14442;50.196;8.096;2023-03-31T02:16:30;21.00;46.30
15983;DHT22;14442;50.196;8.096;2023-03-31T02:19:01;21.00;46.30
15983;DHT22;14442;50.196;8.096;2023-03-31T02:21:32;21.00;46.20
15983;DHT22;14442;50.196;8.096;2023-03-31T02:24:03;21.10;46.30
15983;DHT22;14442;50.196;8.096;2023-03-31T02:26:36;21.00;46.20
15983;DHT22;14442;50.196;8.096;2023-03-31T02:29:03;21.00;46.90
15983;DHT22;14442;50.196;8.096;2023-03-31T02:31:39;21.00;46.30
15983;DHT22;14442;50.196;8.096;2023-03-31T02:34:08;21.00;46.30
15983;DHT22;14442;50.196;8.096;2023-03-31T02:36:35;21.00;46.20
15983;DHT22;14442;50.196;8.096;2023-03-31T02:39:06;21.00;46.90
15983;DHT22;14442;50.196;8.096;2023-03-31T02:41:35;20.90;46.20
15983;DHT22;14442;50.196;8.096;2023-03-31T02:44:03;21.00;46.30
15983;DHT22;14442;50.196;8.096;2023-03-31T02:46:30;21.00;46.30
15983;DHT22;14442;50.196;8.096;2023-03-31T02:48:59;21.00;46.20
15983;DHT22;14442;50.196;8.096;2023-03-31T02:51:48;21.00;46.20
15983;DHT22;14442;50.196;8.096;2023-03-31T02:54:50;21.00;46.30
15983;DHT22;14442;50.196;8.096;2023-03-31T02:57:36;21.00;46.20
15983;DHT22;14442;50.196;8.096;2023-03-31T03:00:13;20.90;46.20
15983;DHT22;14442;50.196;8.096;2023-03-31T03:02:57;21.00;46.30
15983;DHT22;14442;50.196;8.096;2023-03-31T03:05:31;20.90;46.20
15983;DHT22;14442;50.196;8.096;2023-03-31T03:08:08;20.90;46.20
15983;DHT22;14442;50.196;8.096;2023-03-31T03:10:46;20.90;46.20
15983;DHT22;14442;50.196;8.096;2023-03-31T03:13:24;20.90;46.20
15983;DHT22;14442;50.196;8.096;2023-03-31T03:15:57;21.00;46.30
15983;DHT22;14442;50.196;8.096;2023-03-31T03:18:26;20.90;46.20
15983;DHT22;14442;50.196;8.096;2023-03-31T03:20:53;20.90;46.20
15983;DHT22;14442;50.196;8.096;2023-03-31T03:23:23;20.90;46.20
15983;DHT22;14442;50.196;8.096;2023-03-31T03:25:50;20.90;46.30
15983;DHT22;14442;50.196;8.096;2023-03-31T03:28:18;20.90;46.40
15983;DHT22;14442;50.196;8.096;2023-03-31T03:30:44;20.90;46.30
15983;DHT22;14442;50.196;8.096;2023-03-31T03:33:11;20.90;46.30
15983;DHT22;14442;50.196;8.096;2023-03-31T03:35:41;20.90;46.40
15983;DHT22;14442;50.196;8.096;2023-03-31T03:38:08;20.90;46.40
15983;DHT22;14442;50.196;8.096;2023-03-31T03:40:34;20.90;46.30
15983;DHT22;14442;50.196;8.096;2023-03-31T03:43:01;20.90;46.40
15983;DHT22;14442;50.196;8.096;2023-03-31T03:45:29;20.90;46.40
15983;DHT22;14442;50.196;8.096;2023-03-31T03:47:55;20.90;46.30
15983;DHT22;14442;50.196;8.096;2023-03-31T03:50:22;20.90;46.40
15983;DHT22;14442;50.196;8.096;2023-03-31T03:52:49;20.90;46.30
15983;DHT22;14442;50.196;8.096;2023-03-31T03:55:16;20.90;46.40
15983;DHT22;14442;50.196;8.096;2023-03-31T03:57:45;20.90;46.40
15983;DHT22;14442;50.196;8.096;2023-03-31T04:00:12;20.90;46.30
15983;DHT22;14442;50.196;8.096;2023-03-31T04:02:40;20.90;46.30
15983;DHT22;14442;50.196;8.096;2023-03-31T04:05:10;20.80;46.20
15983;DHT22;14442;50.196;8.096;2023-03-31T04:07:37;20.90;46.40
15983;DHT22;14442;50.196;8.096;2023-03-31T04:10:04;20.80;46.20
15983;DHT22;14442;50.196;8.096;2023-03-31T04:12:32;20.80;46.20
15983;DHT22;14442;50.196;8.096;2023-03-31T04:14:59;20.80;46.30
15983;DHT22;14442;50.196;8.096;2023-03-31T04:17:26;20.80;46.30
15983;DHT22;14442;50.196;8.096;2023-03-31T04:20:00;20.80;46.30
15983;DHT22;14442;50.196;8.096;2023-03-31T04:22:30;20.80;46.30
15983;DHT22;14442;50.196;8.096;2023-03-31T04:25:01;20.80;46.30
15983;DHT22;14442;50.196;8.096;2023-03-31T04:27:28;20.80;46.30
15983;DHT22;14442;50.196;8.096;2023-03-31T04:29:55;20.80;46.30
15983;DHT22;14442;50.196;8.096;2023-03-31T04:32:22;20.80;46.30
15983;DHT22;14442;50.196;8.096;2023-03-31T04:34:49;20.80;46.30
15983;DHT22;14442;50.196;8.096;2023-03-31T04:37:17;20.80;46.30
15983;DHT22;14442;50.196;8.096;2023-03-31T04:39:44;20.70;46.20
15983;DHT22;14442;50.196;8.096;2023-03-31T04:42:15;20.80;46.20
15983;DHT22;14442;50.196;8.096;2023-03-31T04:44:41;20.80;46.30
15983;DHT22;14442;50.196;8.096;2023-03-31T04:47:08;20.80;46.30
15983;DHT22;14442;50.196;8.096;2023-03-31T04:49:34;20.80;46.20
15983;DHT22;14442;50.196;8.096;2023-03-31T04:52:01;20.80;46.30
15983;DHT22;14442;50.196;8.096;2023-03-31T04:54:29;20.80;46.30
15983;DHT22;14442;50.196;8.096;2023-03-31T04:56:56;20.80;46.30
15983;DHT22;14442;50.196;8.096;2023-03-31T04:59:22;20.70;46.20
15983;DHT22;14442;50.196;8.096;2023-03-31T05:01:49;20.70;46.20
15983;DHT22;14442;50.196;8.096;2023-03-31T05:04:16;20.70;46.20
15983;DHT22;14442;50.196;8.096;2023-03-31T05:06:42;20.70;46.20
15983;DHT22;14442;50.196;8.096;2023-03-31T05:09:09;20.70;46.20
15983;DHT22;14442;50.196;8.096;2023-03-31T05:11:37;20.70;46.20
15983;DHT22;14442;50.196;8.096;2023-03-31T05:14:04;20.70;46.30
15983;DHT22;14442;50.196;8.096;2023-03-31T05:16:30;20.70;46.20
15983;DHT22;14442;50.196;8.096;2023-03-31T05:18:57;20.70;46.20
15983;DHT22;14442;50.196;8.096;2023-03-31T05:21:24;20.70;46.20
15983;DHT22;14442;50.196;8.096;2023-03-31T05:23:51;20.70;46.20
15983;DHT22;14442;50.196;8.096;2023-03-31T05:26:18;20.70;46.20
15983;DHT22;14442;50.196;8.096;2023-03-31T05:28:46;20.70;46.20
15983;DHT22;14442;50.196;8.096;2023-03-31T05:31:13;20.70;46.20
15983;DHT22;14442;50.196;8.096;2023-03-31T05:33:40;20.70;46.20
15983;DHT22;14442;50.196;8.096;2023-03-31T05:36:07;20.70;46.20
15983;DHT22;14442;50.196;8.096;2023-03-31T05:38:34;20.70;46.20
15983;DHT22;14442;50.196;8.096;2023-03-31T05:41:01;20.70;46.20
15983;DHT22;14442;50.196;8.096;2023-03-31T05:43:28;20.70;46.20
15983;DHT22;14442;50.196;8.096;2023-03-31T05:45:56;20.70;46.20
15983;DHT22;14442;50.196;8.096;2023-03-31T05:48:24;20.70;46.20
15983;DHT22;14442;50.196;8.096;2023-03-31T05:50:55;20.70;46.20
15983;DHT22;14442;50.196;8.096;2023-03-31T05:53:22;20.70;46.20
15983;DHT22;14442;50.196;8.096;2023-03-31T05:55:49;20.70;46.20
15983;DHT22;14442;50.196;8.096;2023-03-31T05:58:15;20.70;46.20
15983;DHT22;14442;50.196;8.096;2023-03-31T06:00:42;20.70;46.20
15983;DHT22;14442;50.196;8.096;2023-03-31T06:03:10;20.70;46.20
15983;DHT22;14442;50.196;8.096;2023-03-31T06:05:37;20.60;46.20
15983;DHT22;14442;50.196;8.096;2023-03-31T06:08:06;20.60;46.10
15983;DHT22;14442;50.196;8.096;2023-03-31T06:10:32;20.70;46.20
15983;DHT22;14442;50.196;8.096;2023-03-31T06:13:00;20.60;46.20
15983;DHT22;14442;50.196;8.096;2023-03-31T06:15:27;20.60;46.20
15983;DHT22;14442;50.196;8.096;2023-03-31T06:17:53;20.60;46.20
15983;DHT22;14442;50.196;8.096;2023-03-31T06:20:21;20.60;46.10
15983;DHT22;14442;50.196;8.096;2023-03-31T06:22:48;20.60;46.20
15983;DHT22;14442;50.196;8.096;2023-03-31T06:25:15;20.70;46.30
15983;DHT22;14442;50.196;8.096;2023-03-31T06:27:41;20.70;46.60
15983;DHT22;14442;50.196;8.096;2023-03-31T06:30:09;20.70;46.70
15983;DHT22;14442;50.196;8.096;2023-03-31T06:32:35;20.70;46.80
15983;DHT22;14442;50.196;8.096;2023-03-31T06:35:02;20.80;46.90
15983;DHT22;14442;50.196;8.096;2023-03-31T06:37:30;20.70;46.90
15983;DHT22;14442;50.196;8.096;2023-03-31T06:39:57;20.80;47.00
15983;DHT22;14442;50.196;8.096;2023-03-31T06:42:23;20.80;47.10
15983;DHT22;14442;50.196;8.096;2023-03-31T06:44:50;20.80;47.10
15983;DHT22;14442;50.196;8.096;2023-03-31T06:47:17;20.80;47.20
15983;DHT22;14442;50.196;8.096;2023-03-31T06:49:43;20.80;47.40
15983;DHT22;14442;50.196;8.096;2023-03-31T06:52:10;20.80;47.30
15983;DHT22;14442;50.196;8.096;2023-03-31T06:54:38;20.80;47.40
15983;DHT22;14442;50.196;8.096;2023-03-31T06:57:05;20.90;47.40
15983;DHT22;14442;50.196;8.096;2023-03-31T06:59:31;20.80;47.30
15983;DHT22;14442;50.196;8.096;2023-03-31T07:01:58;20.90;47.20
15983;DHT22;14442;50.196;8.096;2023-03-31T07:04:25;20.80;47.20
15983;DHT22;14442;50.196;8.096;2023-03-31T07:06:51;20.80;47.40
15983;DHT22;14442;50.196;8.096;2023-03-31T07:09:18;20.90;47.60
15983;DHT22;14442;50.196;8.096;2023-03-31T07:11:49;20.90;47.60
15983;DHT22;14442;50.196;8.096;2023-03-31T07:14:16;20.90;47.90
15983;DHT22;14442;50.196;8.096;2023-03-31T07:16:42;20.90;47.90
15983;DHT22;14442;50.196;8.096;2023-03-31T07:19:09;20.90;47.90
15983;DHT22;14442;50.196;8.096;2023-03-31T07:21:36;21.00;48.00
15983;DHT22;14442;50.196;8.096;2023-03-31T07:24:03;21.00;48.10
15983;DHT22;14442;50.196;8.096;2023-03-31T07:26:30;21.00;48.10
15983;DHT22;14442;50.196;8.096;2023-03-31T07:28:58;21.10;47.90
15983;DHT22;14442;50.196;8.096;2023-03-31T07:31:25;21.10;47.90
15983;DHT22;14442;50.196;8.096;2023-03-31T07:33:51;21.10;48.40
15983;DHT22;14442;50.196;8.096;2023-03-31T07:36:18;21.10;48.10
15983;DHT22;14442;50.196;8.096;2023-03-31T07:38:45;21.10;48.40
15983;DHT22;14442;50.196;8.096;2023-03-31T07:41:15;21.10;48.40
15983;DHT22;14442;50.196;8.096;2023-03-31T07:43:42;21.10;48.20
15983;DHT22;14442;50.196;8.096;2023-03-31T07:46:15;21.10;48.30
15983;DHT22;14442;50.196;8.096;2023-03-31T07:48:42;21.00;48.20
15983;DHT22;14442;50.196;8.096;2023-03-31T07:51:11;21.00;48.40
15983;DHT22;14442;50.196;8.096;2023-03-31T07:53:37;21.00;48.10
15983;DHT22;14442;50.196;8.096;2023-03-31T07:56:04;21.00;48.30
15983;DHT22;14442;50.196;8.096;2023-03-31T07:58:31;21.00;48.10
15983;DHT22;14442;50.196;8.096;2023-03-31T08:00:58;21.00;48.10
15983;DHT22;14442;50.196;8.096;2023-03-31T08:03:26;21.00;48.20
15983;DHT22;14442;50.196;8.096;2023-03-31T08:05:54;21.00;48.30
15983;DHT22;14442;50.196;8.096;2023-03-31T08:08:21;21.00;48.00
15983;DHT22;14442;50.196;8.096;2023-03-31T08:10:48;21.00;48.10
15983;DHT22;14442;50.196;8.096;2023-03-31T08:13:15;21.00;48.20
15983;DHT22;14442;50.196;8.096;2023-03-31T08:15:41;21.00;48.10
15983;DHT22;14442;50.196;8.096;2023-03-31T08:18:08;21.10;48.70
15983;DHT22;14442;50.196;8.096;2023-03-31T08:20:36;21.10;49.30
15983;DHT22;14442;50.196;8.096;2023-03-31T08:23:03;21.10;49.10
15983;DHT22;14442;50.196;8.096;2023-03-31T08:25:33;21.10;48.90
15983;DHT22;14442;50.196;8.096;2023-03-31T08:28:00;21.10;49.10
15983;DHT22;14442;50.196;8.096;2023-03-31T08:30:26;21.20;49.60
15983;DHT22;14442;50.196;8.096;2023-03-31T08:32:53;21.20;49.50
15983;DHT22;14442;50.196;8.096;2023-03-31T08:35:20;21.20;49.40
15983;DHT22;14442;50.196;8.096;2023-03-31T08:37:48;21.10;49.30
15983;DHT22;14442;50.196;8.096;2023-03-31T08:40:18;21.10;49.10
15983;DHT22;14442;50.196;8.096;2023-03-31T08:42:49;21.00;49.10
15983;DHT22;14442;50.196;8.096;2023-03-31T08:45:20;21.00;49.20
15983;DHT22;14442;50.196;8.096;2023-03-31T08:47:52;21.00;49.10
15983;DHT22;14442;50.196;8.096;2023-03-31T08:50:23;21.00;49.00
15983;DHT22;14442;50.196;8.096;2023-03-31T08:52:58;21.00;49.10
15983;DHT22;14442;50.196;8.096;2023-03-31T08:55:30;21.10;49.20
15983;DHT22;14442;50.196;8.096;2023-03-31T08:58:02;21.10;49.90
15983;DHT22;14442;50.196;8.096;2023-03-31T09:00:39;21.10;49.10
15983;DHT22;14442;50.196;8.096;2023-03-31T09:03:12;21.10;49.30
15983;DHT22;14442;50.196;8.096;2023-03-31T09:05:52;21.20;49.50
15983;DHT22;14442;50.196;8.096;2023-03-31T09:08:31;21.20;49.20
15983;DHT22;14442;50.196;8.096;2023-03-31T09:11:05;21.20;49.20
15983;DHT22;14442;50.196;8.096;2023-03-31T09:13:52;21.20;49.20
15983;DHT22;14442;50.196;8.096;2023-03-31T09:16:24;21.20;49.10
15983;DHT22;14442;50.196;8.096;2023-03-31T09:18:57;21.20;49.20
15983;DHT22;14442;50.196;8.096;2023-03-31T09:21:27;21.20;49.10
15983;DHT22;14442;50.196;8.096;2023-03-31T09:24:02;21.20;49.00
15983;DHT22;14442;50.196;8.096;2023-03-31T09:26:35;21.30;49.00
15983;DHT22;14442;50.196;8.096;2023-03-31T09:29:06;21.30;49.00
15983;DHT22;14442;50.196;8.096;2023-03-31T09:31:37;21.30;49.00
15983;DHT22;14442;50.196;8.096;2023-03-31T09:34:13;21.30;49.10
15983;DHT22;14442;50.196;8.096;2023-03-31T09:36:40;21.30;49.00
15983;DHT22;14442;50.196;8.096;2023-03-31T09:39:11;21.20;48.80
15983;DHT22;14442;50.196;8.096;2023-03-31T09:41:42;21.30;49.10
15983;DHT22;14442;50.196;8.096;2023-03-31T09:44:19;21.20;49.00
15983;DHT22;14442;50.196;8.096;2023-03-31T09:46:47;21.20;49.00
15983;DHT22;14442;50.196;8.096;2023-03-31T09:49:17;21.20;48.80
15983;DHT22;14442;50.196;8.096;2023-03-31T09:51:48;21.20;48.80
15983;DHT22;14442;50.196;8.096;2023-03-31T09:54:22;21.10;48.70
15983;DHT22;14442;50.196;8.096;2023-03-31T09:56:53;21.20;48.70
15983;DHT22;14442;50.196;8.096;2023-03-31T09:59:21;21.10;48.60
15983;DHT22;14442;50.196;8.096;2023-03-31T10:01:50;21.10;48.80
15983;DHT22;14442;50.196;8.096;2023-03-31T10:04:21;21.20;48.70
15983;DHT22;14442;50.196;8.096;2023-03-31T10:06:49;21.10;48.60
15983;DHT22;14442;50.196;8.096;2023-03-31T10:09:19;21.10;48.50
15983;DHT22;14442;50.196;8.096;2023-03-31T10:11:53;21.10;48.40
15983;DHT22;14442;50.196;8.096;2023-03-31T10:14:24;21.10;48.40
15983;DHT22;14442;50.196;8.096;2023-03-31T10:16:54;21.10;48.40
15983;DHT22;14442;50.196;8.096;2023-03-31T10:19:23;21.00;48.30
15983;DHT22;14442;50.196;8.096;2023-03-31T10:21:55;21.10;48.30
15983;DHT22;14442;50.196;8.096;2023-03-31T10:24:23;21.10;48.20
15983;DHT22;14442;50.196;8.096;2023-03-31T10:26:54;21.20;48.30
15983;DHT22;14442;50.196;8.096;2023-03-31T10:29:27;21.20;48.20
15983;DHT22;14442;50.196;8.096;2023-03-31T10:31:55;21.10;48.10
15983;DHT22;14442;50.196;8.096;2023-03-31T10:34:23;21.20;48.10
15983;DHT22;14442;50.196;8.096;2023-03-31T10:36:51;21.20;48.10
15983;DHT22;14442;50.196;8.096;2023-03-31T10:39:18;21.20;48.10
15983;DHT22;14442;50.196;8.096;2023-03-31T10:41:50;21.20;48.00
15983;DHT22;14442;50.196;8.096;2023-03-31T10:44:36;21.20;48.00
15983;DHT22;14442;50.196;8.096;2023-03-31T10:47:05;21.20;47.90
15983;DHT22;14442;50.196;8.096;2023-03-31T10:49:42;21.20;47.90
15983;DHT22;14442;50.196;8.096;2023-03-31T10:52:16;21.20;47.90
15983;DHT22;14442;50.196;8.096;2023-03-31T10:54:48;21.30;47.90
15983;DHT22;14442;50.196;8.096;2023-03-31T10:57:17;21.30;47.90
15983;DHT22;14442;50.196;8.096;2023-03-31T11:05:45;21.30;48.10
15983;DHT22;14442;50.196;8.096;2023-03-31T11:08:24;21.30;48.00
15983;DHT22;14442;50.196;8.096;2023-03-31T11:11:07;21.30;47.90
15983;DHT22;14442;50.196;8.096;2023-03-31T11:13:41;21.40;48.00
15983;DHT22;14442;50.196;8.096;2023-03-31T11:16:17;21.40;48.00
15983;DHT22;14442;50.196;8.096;2023-03-31T11:19:02;21.30;48.00
15983;DHT22;14442;50.196;8.096;2023-03-31T11:21:36;21.30;48.00
15983;DHT22;14442;50.196;8.096;2023-03-31T11:24:15;21.30;48.00
15983;DHT22;14442;50.196;8.096;2023-03-31T11:26:47;21.30;48.00
15983;DHT22;14442;50.196;8.096;2023-03-31T11:29:28;21.30;48.10
15983;DHT22;14442;50.196;8.096;2023-03-31T11:32:02;21.30;48.10
15983;DHT22;14442;50.196;8.096;2023-03-31T11:34:46;21.40;48.10
15983;DHT22;14442;50.196;8.096;2023-03-31T11:37:27;21.40;48.20
15983;DHT22;14442;50.196;8.096;2023-03-31T11:42:47;21.40;48.00
15983;DHT22;14442;50.196;8.096;2023-03-31T11:45:18;21.40;47.90
15983;DHT22;14442;50.196;8.096;2023-03-31T11:47:49;21.40;47.90
15983;DHT22;14442;50.196;8.096;2023-03-31T11:50:20;21.40;47.90
15983;DHT22;14442;50.196;8.096;2023-03-31T11:52:53;21.30;47.80
15983;DHT22;14442;50.196;8.096;2023-03-31T11:55:24;21.40;48.00
15983;DHT22;14442;50.196;8.096;2023-03-31T11:57:58;21.30;47.90
15983;DHT22;14442;50.196;8.096;2023-03-31T12:00:29;21.30;47.90
15983;DHT22;14442;50.196;8.096;2023-03-31T12:03:03;21.30;47.90
15983;DHT22;14442;50.196;8.096;2023-03-31T12:05:35;21.40;48.00
15983;DHT22;14442;50.196;8.096;2023-03-31T12:08:06;21.40;48.00
15983;DHT22;14442;50.196;8.096;2023-03-31T12:10:36;21.40;47.90
15983;DHT22;14442;50.196;8.096;2023-03-31T12:13:14;21.40;47.90
15983;DHT22;14442;50.196;8.096;2023-03-31T12:15:50;21.40;47.80
15983;DHT22;14442;50.196;8.096;2023-03-31T12:18:22;21.40;47.80
15983;DHT22;14442;50.196;8.096;2023-03-31T12:20:51;21.50;48.00
15983;DHT22;14442;50.196;8.096;2023-03-31T12:23:21;21.40;47.70
15983;DHT22;14442;50.196;8.096;2023-03-31T12:25:52;21.50;47.90
15983;DHT22;14442;50.196;8.096;2023-03-31T12:28:20;21.50;47.80
15983;DHT22;14442;50.196;8.096;2023-03-31T12:30:50;21.50;47.70
15983;DHT22;14442;50.196;8.096;2023-03-31T12:33:19;21.50;47.70
15983;DHT22;14442;50.196;8.096;2023-03-31T12:35:58;21.50;47.60
15983;DHT22;14442;50.196;8.096;2023-03-31T12:38:40;21.60;47.70
15983;DHT22;14442;50.196;8.096;2023-03-31T12:41:16;21.60;47.70
15983;DHT22;14442;50.196;8.096;2023-03-31T12:44:02;21.60;47.60
15983;DHT22;14442;50.196;8.096;2023-03-31T12:46:41;21.50;48.20
15983;DHT22;14442;50.196;8.096;2023-03-31T12:49:26;21.50;47.50
15983;DHT22;14442;50.196;8.096;2023-03-31T12:51:59;21.50;47.50
15983;DHT22;14442;50.196;8.096;2023-03-31T12:54:40;21.50;47.50
15983;DHT22;14442;50.196;8.096;2023-03-31T12:57:18;21.50;47.50
15983;DHT22;14442;50.196;8.096;2023-03-31T12:59:46;21.60;47.60
15983;DHT22;14442;50.196;8.096;2023-03-31T13:02:34;21.50;47.50
15983;DHT22;14442;50.196;8.096;2023-03-31T13:05:42;21.60;47.50
15983;DHT22;14442;50.196;8.096;2023-03-31T13:08:50;21.60;47.50
15983;DHT22;14442;50.196;8.096;2023-03-31T13:11:19;21.60;47.50
15983;DHT22;14442;50.196;8.096;2023-03-31T13:13:58;21.60;47.60
15983;DHT22;14442;50.196;8.096;2023-03-31T13:16:25;21.60;47.50
15983;DHT22;14442;50.196;8.096;2023-03-31T13:18:53;21.70;47.70
15983;DHT22;14442;50.196;8.096;2023-03-31T13:21:22;21.70;47.50
15983;DHT22;14442;50.196;8.096;2023-03-31T13:23:49;21.70;47.60
15983;DHT22;14442;50.196;8.096;2023-03-31T13:26:36;21.70;47.50
15983;DHT22;14442;50.196;8.096;2023-03-31T13:29:17;21.70;47.70
15983;DHT22;14442;50.196;8.096;2023-03-31T13:34:57;21.60;47.80
15983;DHT22;14442;50.196;8.096;2023-03-31T13:37:44;21.60;47.70
15983;DHT22;14442;50.196;8.096;2023-03-31T13:40:25;21.60;47.70
15983;DHT22;14442;50.196;8.096;2023-03-31T13:43:37;21.70;47.70
15983;DHT22;14442;50.196;8.096;2023-03-31T13:49:06;21.70;47.50
15983;DHT22;14442;50.196;8.096;2023-03-31T13:51:44;21.70;47.50
15983;DHT22;14442;50.196;8.096;2023-03-31T13:54:45;21.80;47.60
15983;DHT22;14442;50.196;8.096;2023-03-31T14:00:24;21.80;47.50
15983;DHT22;14442;50.196;8.096;2023-03-31T14:03:04;21.70;47.40
15983;DHT22;14442;50.196;8.096;2023-03-31T14:05:33;21.70;47.40
15983;DHT22;14442;50.196;8.096;2023-03-31T14:08:06;21.70;47.30
15983;DHT22;14442;50.196;8.096;2023-03-31T14:10:39;21.80;47.50
15983;DHT22;14442;50.196;8.096;2023-03-31T14:13:08;21.80;47.40
15983;DHT22;14442;50.196;8.096;2023-03-31T14:15:37;21.80;47.30
15983;DHT22;14442;50.196;8.096;2023-03-31T14:18:06;21.80;47.30
15983;DHT22;14442;50.196;8.096;2023-03-31T14:20:42;21.70;47.30
15983;DHT22;14442;50.196;8.096;2023-03-31T14:23:19;21.70;47.20
15983;DHT22;14442;50.196;8.096;2023-03-31T14:25:57;21.70;47.20
15983;DHT22;14442;50.196;8.096;2023-03-31T14:28:46;21.70;47.20
15983;DHT22;14442;50.196;8.096;2023-03-31T14:31:20;21.70;47.20
15983;DHT22;14442;50.196;8.096;2023-03-31T14:34:04;21.70;47.20
15983;DHT22;14442;50.196;8.096;2023-03-31T14:36:37;21.70;47.50
15983;DHT22;14442;50.196;8.096;2023-03-31T14:39:08;21.70;47.30
15983;DHT22;14442;50.196;8.096;2023-03-31T14:41:37;21.70;47.30
15983;DHT22;14442;50.196;8.096;2023-03-31T14:44:05;21.70;47.10
15983;DHT22;14442;50.196;8.096;2023-03-31T14:46:36;21.70;47.30
15983;DHT22;14442;50.196;8.096;2023-03-31T14:49:11;21.70;47.20
15983;DHT22;14442;50.196;8.096;2023-03-31T14:51:42;21.70;47.20
15983;DHT22;14442;50.196;8.096;2023-03-31T14:54:14;21.60;47.10
15983;DHT22;14442;50.196;8.096;2023-03-31T14:56:45;21.60;47.30
15983;DHT22;14442;50.196;8.096;2023-03-31T14:59:17;21.70;47.40
15983;DHT22;14442;50.196;8.096;2023-03-31T15:01:47;21.60;47.30
15983;DHT22;14442;50.196;8.096;2023-03-31T15:04:16;21.70;47.30
15983;DHT22;14442;50.196;8.096;2023-03-31T15:06:45;21.70;47.40
15983;DHT22;14442;50.196;8.096;2023-03-31T15:09:18;21.60;47.10
15983;DHT22;14442;50.196;8.096;2023-03-31T15:11:53;21.60;47.00
15983;DHT22;14442;50.196;8.096;2023-03-31T15:14:21;21.50;47.00
15983;DHT22;14442;50.196;8.096;2023-03-31T15:16:48;21.50;47.20
15983;DHT22;14442;50.196;8.096;2023-03-31T15:19:18;21.50;47.20
15983;DHT22;14442;50.196;8.096;2023-03-31T15:21:45;21.50;47.10
15983;DHT22;14442;50.196;8.096;2023-03-31T15:24:13;21.40;47.10
15983;DHT22;14442;50.196;8.096;2023-03-31T15:26:44;21.40;47.10
15983;DHT22;14442;50.196;8.096;2023-03-31T15:29:16;21.40;47.10
15983;DHT22;14442;50.196;8.096;2023-03-31T15:31:45;21.40;47.10
15983;DHT22;14442;50.196;8.096;2023-03-31T15:34:20;21.40;47.10
15983;DHT22;14442;50.196;8.096;2023-03-31T15:36:48;21.30;47.00
15983;DHT22;14442;50.196;8.096;2023-03-31T15:39:15;21.30;47.00
15983;DHT22;14442;50.196;8.096;2023-03-31T15:41:43;21.30;47.00
15983;DHT22;14442;50.196;8.096;2023-03-31T15:44:34;21.30;47.00
15983;DHT22;14442;50.196;8.096;2023-03-31T15:47:05;21.30;47.00
15983;DHT22;14442;50.196;8.096;2023-03-31T15:49:33;21.30;47.00
15983;DHT22;14442;50.196;8.096;2023-03-31T15:52:00;21.20;47.00
15983;DHT22;14442;50.196;8.096;2023-03-31T15:54:30;21.30;47.00
15983;DHT22;14442;50.196;8.096;2023-03-31T15:56:59;21.20;47.00
15983;DHT22;14442;50.196;8.096;2023-03-31T15:59:27;21.20;47.00
15983;DHT22;14442;50.196;8.096;2023-03-31T16:01:56;21.20;47.00
15983;DHT22;14442;50.196;8.096;2023-03-31T16:04:29;21.20;47.00
15983;DHT22;14442;50.196;8.096;2023-03-31T16:06:59;21.20;47.00
15983;DHT22;14442;50.196;8.096;2023-03-31T16:09:37;21.10;46.90
15983;DHT22;14442;50.196;8.096;2023-03-31T16:12:11;21.10;46.90
15983;DHT22;14442;50.196;8.096;2023-03-31T16:14:44;21.10;46.90
15983;DHT22;14442;50.196;8.096;2023-03-31T16:17:18;21.10;46.90
15983;DHT22;14442;50.196;8.096;2023-03-31T16:19:49;21.10;46.90